ESNQ

Kiruna Airport

Sweden
METAR ESNQ 181550Z 21003KT CAVOK M16/M17 Q1007
Observed Flight Rules
Dec-18 @ 15:50 UTC (47 minutes ago) Visual Flight Rules
Wind Visibility Clouds
210° at 3 knots 10,000+ meters
  • Clear skies
Temperatures Readings
Current -16°C / 3°F
Dewpoint -17°C / 1°F
Humidity 92%
Altimeter 29.73" Hg
Pressure 1007 hPa
Elevation 452
METAR ESNQ 181550Z 21003KT CAVOK M16/M17 Q1007
Observed Flight Rules
Dec-18 @ 15:50 UTC
(47 minutes ago)
VFR
Wind Visibility
210° at 3 knots 10,000+ meters
Clouds
  • Clear skies
Temperature Dewpoint
-16°C / 3°F -17°C / 1°F
Humidity Altimeter Pressure
92% 29.73" Hg 1007 hPa